Time;durP1;ratioP1;P1;durP2;ratioP2;P2;SDS_P1;SDS_P2;PMS_P1;PMS_P2;Temp;Humidity;BMP_temperature;BMP_pressure;BME280_temperature;BME280_humidity;BME280_pressure;Samples;Min_cycle;Max_cycle;Signal;HPM_P1;HPM_P2
2022/11/02 00:01:23;;;;;;;7.15;1.50;;;13.80;93.80;;;;;;4993322;28;20094;-62
2022/11/02 00:03:48;;;;;;;5.20;1.40;;;13.90;93.70;;;;;;4992609;28;20497;-60
2022/11/02 00:06:14;;;;;;;5.97;1.52;;;13.90;93.70;;;;;;4993572;28;20033;-62
2022/11/02 00:08:39;;;;;;;4.70;1.45;;;13.90;93.70;;;;;;4993243;28;20026;-66
2022/11/02 00:11:05;;;;;;;6.82;1.60;;;13.90;93.70;;;;;;4992756;28;20105;-66
2022/11/02 00:13:31;;;;;;;5.45;1.20;;;13.90;93.70;;;;;;4993633;28;20065;-67
2022/11/02 00:16:00;;;;;;;7.60;2.05;;;13.90;93.60;;;;;;4993947;28;20081;-58
2022/11/02 00:18:26;;;;;;;7.53;1.50;;;13.90;93.60;;;;;;4992693;28;20054;-67
2022/11/02 00:20:51;;;;;;;6.93;1.50;;;13.90;93.50;;;;;;4993381;28;20022;-69
2022/11/02 00:23:17;;;;;;;8.32;1.63;;;14.00;93.50;;;;;;4975667;28;20076;-65
2022/11/02 00:25:49;;;;;;;7.30;1.52;;;14.00;93.40;;;;;;4992891;28;20383;-68
2022/11/02 00:28:15;;;;;;;11.63;1.48;;;14.00;93.40;;;;;;4993511;28;20151;-62
2022/11/02 00:30:41;;;;;;;6.07;1.65;;;14.00;93.40;;;;;;4992665;28;20053;-67
2022/11/02 00:33:06;;;;;;;6.53;1.77;;;14.00;93.40;;;;;;4993121;28;20467;-62
2022/11/02 00:35:33;;;;;;;12.75;2.15;;;13.90;93.40;;;;;;4993044;28;20026;-65
2022/11/02 00:37:58;;;;;;;5.05;1.40;;;13.90;93.50;;;;;;4992708;28;20101;-65
2022/11/02 00:40:24;;;;;;;4.40;1.40;;;13.90;93.60;;;;;;4993064;28;20586;-59
2022/11/02 00:42:50;;;;;;;5.65;1.40;;;13.90;94.10;;;;;;4993219;28;20029;-65
2022/11/02 00:45:15;;;;;;;6.60;1.88;;;13.90;94.60;;;;;;4992455;28;20101;-65
2022/11/02 00:47:41;;;;;;;5.10;1.13;;;13.80;95.20;;;;;;4993381;28;20041;-58
2022/11/02 00:50:07;;;;;;;5.07;1.35;;;13.70;95.60;;;;;;4992841;28;20019;-61
2022/11/02 00:52:32;;;;;;;11.65;1.70;;;13.60;95.90;;;;;;4991856;28;20108;-59
2022/11/02 00:54:58;;;;;;;7.25;1.48;;;13.50;96.30;;;;;;4992741;28;20038;-57
2022/11/02 00:57:24;;;;;;;7.70;1.48;;;13.40;96.80;;;;;;4992578;28;20038;-61
2022/11/02 00:59:49;;;;;;;7.03;1.35;;;13.30;97.00;;;;;;4992241;28;20089;-61
2022/11/02 01:02:15;;;;;;;5.57;1.45;;;13.20;97.10;;;;;;4992601;28;20062;-58
2022/11/02 01:04:40;;;;;;;4.88;1.35;;;13.20;97.40;;;;;;4992705;28;20022;-60
2022/11/02 01:07:06;;;;;;;3.92;1.27;;;13.00;97.60;;;;;;4991746;28;20026;-64
2022/11/02 01:09:33;;;;;;;5.03;1.52;;;13.00;97.90;;;;;;4992546;28;20023;-57
2022/11/02 01:11:59;;;;;;;5.65;1.45;;;12.80;98.10;;;;;;4992457;28;20085;-54
2022/11/02 01:14:24;;;;;;;4.63;1.38;;;12.80;98.30;;;;;;4991998;28;20034;-57
2022/11/02 01:16:50;;;;;;;9.98;1.88;;;12.70;98.80;;;;;;4992839;28;20050;-58
2022/11/02 01:19:15;;;;;;;7.43;1.35;;;12.60;99.00;;;;;;4992558;28;20022;-58
2022/11/02 01:21:41;;;;;;;4.35;1.48;;;12.60;99.20;;;;;;4991789;28;20463;-57
2022/11/02 01:24:07;;;;;;;5.13;1.27;;;12.60;99.30;;;;;;4992506;28;20582;-67
2022/11/02 01:26:32;;;;;;;2.88;1.13;;;12.50;99.40;;;;;;4992508;28;20026;-65
2022/11/02 01:28:58;;;;;;;4.90;1.38;;;12.60;99.60;;;;;;4991829;28;20458;-62
2022/11/02 01:31:24;;;;;;;7.82;1.88;;;12.60;99.40;;;;;;4992210;28;20037;-60
2022/11/02 01:33:49;;;;;;;7.28;1.40;;;12.60;99.40;;;;;;4994270;28;20121;-60
2022/11/02 01:36:19;;;;;;;5.60;1.20;;;12.60;99.40;;;;;;4996158;28;20029;-60
2022/11/02 01:38:45;;;;;;;3.88;1.25;;;12.60;99.40;;;;;;4996398;28;20030;-63
2022/11/02 01:41:12;;;;;;;7.28;1.52;;;12.70;99.40;;;;;;4995632;28;20092;-59
2022/11/02 01:43:42;;;;;;;5.10;1.27;;;12.70;99.30;;;;;;4996474;28;20061;-61
2022/11/02 01:46:23;;;;;;;3.63;1.30;;;12.80;99.20;;;;;;4996030;28;20081;-64
2022/11/02 01:48:52;;;;;;;;;;;12.80;99.10;;;;;;4995962;28;20023;-61
2022/11/02 01:51:35;;;;;;;9.88;1.60;;;12.90;99.20;;;;;;4995723;28;19917;-58
2022/11/02 01:54:23;;;;;;;6.53;1.48;;;12.90;99.10;;;;;;4996065;28;20104;-62
2022/11/02 01:56:52;;;;;;;6.70;1.30;;;13.00;99.00;;;;;;4995372;28;20109;-62
2022/11/02 01:59:23;;;;;;;3.80;1.45;;;13.00;99.00;;;;;;4995472;28;20089;-63
2022/11/02 02:01:49;;;;;;;8.70;1.40;;;13.10;99.00;;;;;;4994734;28;20025;-58
2022/11/02 02:04:15;;;;;;;3.53;0.85;;;13.10;98.70;;;;;;4995457;28;20030;-56
2022/11/02 02:06:41;;;;;;;3.10;1.00;;;13.20;97.80;;;;;;4995487;28;20101;-60
2022/11/02 02:09:09;;;;;;;3.08;0.60;;;13.00;96.00;;;;;;4995049;28;20031;-59
2022/11/02 02:11:36;;;;;;;2.72;0.70;;;12.70;96.20;;;;;;4995119;28;20541;-57
2022/11/02 02:14:13;;;;;;;4.03;0.70;;;12.40;96.70;;;;;;4994964;28;20057;-62
2022/11/02 02:16:56;;;;;;;2.67;0.50;;;12.30;96.50;;;;;;4994863;28;20125;-67
2022/11/02 02:19:30;;;;;;;1.88;0.65;;;12.10;96.60;;;;;;4995488;28;20049;-55
2022/11/02 02:21:56;;;;;;;0.93;0.65;;;12.00;97.00;;;;;;4995313;28;20105;-60
2022/11/02 02:24:30;;;;;;;2.63;0.50;;;11.90;96.70;;;;;;4994577;28;20432;-59
2022/11/02 02:27:17;;;;;;;4.43;0.82;;;11.80;96.70;;;;;;4977672;28;20030;-59
2022/11/02 02:30:18;;;;;;;4.47;0.68;;;11.80;96.50;;;;;;4995254;28;20027;-58
2022/11/02 02:32:54;;;;;;;3.67;0.60;;;11.80;96.50;;;;;;4954255;29;20050;-60
2022/11/02 02:35:24;;;;;;;0.98;0.50;;;11.80;96.50;;;;;;4989423;28;20050;-60
2022/11/02 02:38:00;;;;;;;3.40;0.53;;;11.80;96.50;;;;;;4994350;28;20033;-64
2022/11/02 02:40:43;;;;;;;5.75;0.73;;;11.80;96.60;;;;;;4995200;28;20056;-60
2022/11/02 02:43:25;;;;;;;1.65;0.60;;;11.80;96.60;;;;;;4994744;28;20506;-55
2022/11/02 02:46:33;;;;;;;4.50;0.90;;;11.80;96.70;;;;;;4994312;28;20506;-65
2022/11/02 02:49:00;;;;;;;2.78;0.70;;;11.80;96.70;;;;;;4994667;28;20387;-57
2022/11/02 02:51:29;;;;;;;2.88;0.77;;;11.70;97.00;;;;;;4994090;28;20033;-58
2022/11/02 02:54:22;;;;;;;3.30;0.90;;;11.60;97.30;;;;;;4977365;28;20118;-58
2022/11/02 02:56:52;;;;;;;5.03;0.98;;;11.50;97.60;;;;;;4995143;28;20054;-59
2022/11/02 02:59:26;;;;;;;3.55;0.98;;;11.40;98.00;;;;;;4993986;28;20031;-66
2022/11/02 03:01:53;;;;;;;3.15;0.75;;;11.30;98.60;;;;;;4994782;28;20022;-61
2022/11/02 03:04:18;;;;;;;5.60;1.10;;;11.20;98.80;;;;;;4994566;28;20113;-56
2022/11/02 03:06:49;;;;;;;4.15;1.00;;;11.20;98.90;;;;;;4993744;28;20101;-58
2022/11/02 03:09:23;;;;;;;5.60;1.10;;;11.10;99.10;;;;;;4994660;28;20571;-59
2022/11/02 03:12:34;;;;;;;4.80;0.77;;;11.10;99.10;;;;;;4994444;28;20022;-62
2022/11/02 03:14:59;;;;;;;4.38;1.00;;;11.00;99.20;;;;;;4968959;28;20038;-62
2022/11/02 03:17:42;;;;;;;2.20;0.80;;;11.00;99.40;;;;;;4994514;28;20422;-61
2022/11/02 03:20:20;;;;;;;3.80;0.93;;;10.90;99.50;;;;;;4993486;28;20030;-57
2022/11/02 03:23:07;;;;;;;3.13;0.90;;;11.00;99.50;;;;;;4994280;28;20026;-61
2022/11/02 03:25:51;;;;;;;2.20;0.80;;;11.00;99.70;;;;;;4994291;28;20086;-56
2022/11/02 03:28:48;;;;;;;3.22;1.00;;;11.00;99.70;;;;;;4993311;28;20041;-61
2022/11/02 03:31:30;;;;;;;5.35;1.08;;;11.00;99.80;;;;;;4994160;28;20061;-60
2022/11/02 03:34:23;;;;;;;2.90;0.80;;;11.20;99.80;;;;;;4993296;28;20023;-57
2022/11/02 03:37:18;;;;;;;5.70;1.10;;;11.30;99.60;;;;;;4994104;28;20076;-58
2022/11/02 03:39:51;;;;;;;6.20;1.27;;;11.40;99.60;;;;;;4993690;28;20110;-57
2022/11/02 03:42:23;;;;;;;5.35;1.13;;;11.40;99.60;;;;;;4993168;28;20076;-58
2022/11/02 03:44:56;;;;;;;6.72;1.73;;;11.40;99.60;;;;;;4993774;28;20046;-62
2022/11/02 03:47:22;;;;;;;4.63;1.35;;;11.40;99.60;;;;;;4992849;28;20093;-57
2022/11/02 03:49:50;;;;;;;5.32;1.20;;;11.50;99.60;;;;;;4993717;28;20097;-60
2022/11/02 03:52:21;;;;;;;7.65;1.40;;;11.50;99.60;;;;;;4993490;28;20050;-62
2022/11/02 03:55:21;;;;;;;1.50;0.77;;;11.50;99.60;;;;;;4992789;28;20030;-54
2022/11/02 03:57:49;;;;;;;2.17;1.10;;;11.50;99.60;;;;;;4993426;28;20410;-57
2022/11/02 04:00:20;;;;;;;9.50;1.40;;;11.50;99.50;;;;;;4993441;28;20030;-61
2022/11/02 04:02:50;;;;;;;9.70;1.42;;;11.60;99.50;;;;;;4992817;28;20443;-60
2022/11/02 04:05:15;;;;;;;5.28;1.40;;;11.60;99.40;;;;;;4993429;28;20026;-58
2022/11/02 04:10:28;;;;;;;5.15;1.35;;;11.50;99.40;;;;;;4992521;28;20551;-64
2022/11/02 04:15:38;;;;;;;5.00;1.23;;;11.50;99.40;;;;;;4992686;28;20057;-68
2022/11/02 04:20:51;;;;;;;8.38;1.88;;;11.60;99.20;;;;;;4993278;28;20045;-60
2022/11/02 04:26:02;;;;;;;6.18;1.67;;;11.60;99.10;;;;;;4993378;28;20044;-54
2022/11/02 04:28:27;;;;;;;3.05;1.17;;;11.60;99.00;;;;;;4993156;28;20022;-60
2022/11/02 04:30:53;;;;;;;6.00;1.52;;;11.60;98.90;;;;;;4992246;28;20054;-54
2022/11/02 04:33:33;;;;;;;7.82;1.38;;;11.60;98.70;;;;;;4975514;28;20019;-65
2022/11/02 04:36:06;;;;;;;5.90;1.33;;;11.70;98.70;;;;;;4993190;28;20418;-56
2022/11/02 04:38:41;;;;;;;8.68;2.05;;;11.60;98.70;;;;;;4992316;28;20483;-58
2022/11/02 04:43:56;;;;;;;9.63;1.70;;;11.60;98.60;;;;;;4992465;28;20395;-57
2022/11/02 04:46:23;;;;;;;9.07;1.95;;;11.60;98.50;;;;;;4993031;28;20018;-60
2022/11/02 04:48:50;;;;;;;13.05;1.63;;;11.60;98.50;;;;;;4992979;28;20023;-58
2022/11/02 04:51:16;;;;;;;6.65;1.42;;;11.60;98.30;;;;;;4992317;28;20026;-59
2022/11/02 04:53:41;;;;;;;3.28;1.10;;;11.60;98.20;;;;;;4992672;28;20046;-58
2022/11/02 04:56:07;;;;;;;9.13;2.25;;;11.70;98.10;;;;;;4993031;28;20027;-61
2022/11/02 04:58:33;;;;;;;9.60;1.58;;;11.80;97.90;;;;;;4992079;28;20537;-59
2022/11/02 05:01:07;;;;;;;4.82;1.17;;;12.00;97.60;;;;;;4992961;28;20033;-59
2022/11/02 05:03:33;;;;;;;8.05;1.52;;;12.00;97.40;;;;;;4992751;28;20077;-61
2022/11/02 05:05:59;;;;;;;5.78;1.25;;;12.00;97.20;;;;;;4992022;28;20034;-66
2022/11/02 05:08:24;;;;;;;5.93;1.48;;;12.00;97.10;;;;;;4994838;28;20030;-59
2022/11/02 05:10:54;;;;;;;8.27;1.70;;;12.00;96.90;;;;;;4996369;28;20081;-59
2022/11/02 05:13:20;;;;;;;6.50;2.38;;;12.10;96.80;;;;;;4978340;28;20023;-63
2022/11/02 05:15:45;;;;;;;8.10;1.52;;;12.10;96.70;;;;;;4994936;28;20109;-61
2022/11/02 05:18:11;;;;;;;7.72;1.83;;;12.20;96.60;;;;;;4996491;28;20058;-65
2022/11/02 05:20:36;;;;;;;8.10;1.42;;;12.30;96.40;;;;;;4995557;28;20050;-57
2022/11/02 05:23:02;;;;;;;3.40;1.30;;;12.30;96.30;;;;;;4995908;28;20026;-66
2022/11/02 05:25:28;;;;;;;7.15;1.30;;;12.30;96.20;;;;;;4996220;28;20470;-60
2022/11/02 05:27:55;;;;;;;8.70;1.55;;;12.30;96.20;;;;;;4995457;28;20022;-61
2022/11/02 05:30:21;;;;;;;9.43;1.90;;;12.30;96.00;;;;;;4978747;28;20097;-62
2022/11/02 05:32:47;;;;;;;8.88;1.85;;;12.30;96.10;;;;;;4995967;28;20491;-60
2022/11/02 05:35:12;;;;;;;9.65;1.92;;;12.20;96.20;;;;;;4995322;28;20034;-65
2022/11/02 05:37:38;;;;;;;6.10;1.90;;;12.10;96.30;;;;;;4996003;28;20035;-59
2022/11/02 05:40:04;;;;;;;5.40;2.33;;;12.10;96.50;;;;;;4995089;28;20029;-59
2022/11/02 05:42:30;;;;;;;7.50;1.70;;;12.00;96.60;;;;;;4995821;28;20034;-59
2022/11/02 05:44:55;;;;;;;8.07;1.77;;;12.00;96.90;;;;;;4995721;28;20037;-66
2022/11/02 05:47:21;;;;;;;6.70;1.58;;;12.00;96.60;;;;;;4995110;28;20026;-60
2022/11/02 05:49:48;;;;;;;9.88;1.80;;;12.00;96.60;;;;;;4995530;28;20026;-59
2022/11/02 05:52:14;;;;;;;9.60;1.73;;;12.10;96.50;;;;;;4995339;28;20038;-57
2022/11/02 05:54:39;;;;;;;6.05;1.67;;;12.20;96.50;;;;;;4994808;28;20037;-61
2022/11/02 05:57:05;;;;;;;8.70;1.50;;;12.20;96.30;;;;;;4995798;28;20022;-60
2022/11/02 05:59:30;;;;;;;7.30;1.77;;;12.30;96.20;;;;;;4995439;28;20034;-58
2022/11/02 06:01:56;;;;;;;11.80;2.35;;;12.30;96.10;;;;;;4994679;28;20022;-56
2022/11/02 06:04:21;;;;;;;7.00;1.55;;;12.30;96.20;;;;;;4995532;28;20062;-60
2022/11/02 06:06:47;;;;;;;6.85;1.33;;;12.30;96.20;;;;;;4995918;28;20028;-55
2022/11/02 06:09:13;;;;;;;10.43;1.80;;;12.30;96.20;;;;;;4995841;28;20025;-59
2022/11/02 06:11:38;;;;;;;5.95;1.88;;;12.40;96.20;;;;;;4994972;28;20026;-55
2022/11/02 06:14:04;;;;;;;5.47;1.60;;;12.40;96.10;;;;;;4977801;28;20041;-60
2022/11/02 06:16:30;;;;;;;9.27;1.83;;;12.40;96.00;;;;;;4994603;28;20022;-59
2022/11/02 06:18:56;;;;;;;6.28;1.63;;;12.50;96.00;;;;;;4995117;28;20497;-59
2022/11/02 06:21:21;;;;;;;6.85;1.70;;;12.50;95.70;;;;;;4977726;28;20023;-67
2022/11/02 06:23:48;;;;;;;9.73;1.77;;;12.50;95.70;;;;;;4994830;28;20098;-61
2022/11/02 06:26:14;;;;;;;5.15;1.33;;;12.50;95.60;;;;;;4996159;28;20030;-62
2022/11/02 06:28:39;;;;;;;9.05;1.75;;;12.50;95.60;;;;;;4996382;28;20027;-61
2022/11/02 06:31:05;;;;;;;9.55;2.15;;;12.50;95.60;;;;;;4995968;28;20030;-60
2022/11/02 06:33:30;;;;;;;7.13;1.83;;;12.50;95.60;;;;;;4995059;28;20149;-60
2022/11/02 06:35:56;;;;;;;5.57;1.33;;;12.50;95.60;;;;;;4994906;28;20031;-64
2022/11/02 06:38:22;;;;;;;7.25;1.70;;;12.50;95.50;;;;;;4994605;28;20027;-61
2022/11/02 06:41:00;;;;;;;5.47;1.38;;;12.50;95.40;;;;;;4995081;28;20057;-62
2022/11/02 06:43:26;;;;;;;7.28;1.67;;;12.40;95.50;;;;;;4976740;28;20033;-57
2022/11/02 06:45:56;;;;;;;10.90;1.50;;;12.30;95.60;;;;;;4977592;28;20026;-63
2022/11/02 06:48:23;;;;;;;7.40;1.55;;;12.30;95.70;;;;;;4995112;28;20026;-64
2022/11/02 06:50:49;;;;;;;7.88;1.70;;;12.20;95.80;;;;;;4995106;28;20036;-59
2022/11/02 06:53:14;;;;;;;7.43;1.88;;;12.20;95.90;;;;;;4995647;28;20530;-61
2022/11/02 06:55:40;;;;;;;7.63;1.70;;;12.10;96.00;;;;;;4994573;28;20386;-58
2022/11/02 06:58:06;;;;;;;6.85;2.13;;;12.10;96.10;;;;;;4993761;28;20032;-59
2022/11/02 07:00:31;;;;;;;8.05;1.60;;;12.00;96.60;;;;;;4994655;28;20018;-65
2022/11/02 07:03:01;;;;;;;6.57;1.38;;;11.90;96.40;;;;;;4994215;28;20022;-60
2022/11/02 07:05:26;;;;;;;6.72;1.25;;;11.90;96.50;;;;;;4993796;28;20426;-56
2022/11/02 07:07:52;;;;;;;6.22;1.55;;;11.90;96.60;;;;;;4994505;28;20546;-67
2022/11/02 07:10:18;;;;;;;4.55;1.45;;;11.80;96.70;;;;;;4982117;28;20518;-64
2022/11/02 07:12:44;;;;;;;7.05;1.23;;;11.80;96.80;;;;;;4975177;28;20033;-58
2022/11/02 07:15:09;;;;;;;6.00;1.65;;;11.80;96.90;;;;;;4980408;28;20069;-63
2022/11/02 07:17:38;;;;;;;4.60;1.35;;;11.80;97.00;;;;;;4986914;28;20047;-69
2022/11/02 07:20:04;;;;;;;9.63;2.08;;;11.70;97.00;;;;;;4984352;28;20034;-69
2022/11/02 07:22:30;;;;;;;10.50;1.20;;;11.70;97.10;;;;;;4977680;28;20030;-68
2022/11/02 07:24:56;;;;;;;5.72;1.63;;;11.70;97.20;;;;;;4975191;28;20428;-56
2022/11/02 07:27:21;;;;;;;7.35;1.70;;;11.70;97.20;;;;;;4992470;28;20018;-59
2022/11/02 07:29:47;;;;;;;5.65;1.38;;;11.80;97.20;;;;;;4988692;28;20037;-57
2022/11/02 07:32:13;;;;;;;9.52;1.85;;;11.80;97.10;;;;;;4991736;28;20019;-60
2022/11/02 07:34:38;;;;;;;10.68;1.92;;;11.80;97.10;;;;;;4992553;28;20892;-58
2022/11/02 07:37:04;;;;;;;3.55;1.05;;;11.80;97.10;;;;;;4980622;28;20100;-59
2022/11/02 07:39:29;;;;;;;7.90;1.30;;;11.80;97.00;;;;;;4973020;28;20113;-65
2022/11/02 07:41:55;;;;;;;3.10;1.33;;;11.90;97.00;;;;;;4984969;28;20026;-57
2022/11/02 07:44:20;;;;;;;6.53;1.40;;;11.90;97.00;;;;;;4971122;28;20031;-58
2022/11/02 07:46:46;;;;;;;9.05;1.30;;;12.00;96.80;;;;;;4974249;28;20057;-64
2022/11/02 07:49:11;;;;;;;7.72;1.35;;;12.10;96.50;;;;;;4975343;28;20026;-62
2022/11/02 07:51:37;;;;;;;5.78;1.25;;;12.10;96.40;;;;;;4986252;28;20078;-59
2022/11/02 07:54:02;;;;;;;6.28;1.38;;;12.10;96.40;;;;;;4993347;28;20418;-66
2022/11/02 07:56:28;;;;;;;7.10;1.52;;;12.10;96.80;;;;;;4978893;28;20022;-60
2022/11/02 07:58:54;;;;;;;8.38;1.27;;;12.00;96.60;;;;;;4992744;28;20126;-59
2022/11/02 08:01:19;;;;;;;9.75;2.08;;;12.00;96.70;;;;;;4971400;28;20027;-58
2022/11/02 08:03:45;;;;;;;7.10;1.63;;;11.90;96.70;;;;;;4972910;28;20026;-58
2022/11/02 08:06:10;;;;;;;8.80;1.38;;;11.90;96.80;;;;;;4978424;28;20030;-61
2022/11/02 08:08:36;;;;;;;8.65;1.73;;;11.90;96.80;;;;;;4982825;28;20041;-62
2022/11/02 08:11:05;;;;;;;8.57;1.63;;;11.80;96.90;;;;;;4979634;28;20026;-60
2022/11/02 08:13:31;;;;;;;6.07;1.38;;;11.80;96.90;;;;;;4991534;28;20446;-60
2022/11/02 08:15:57;;;;;;;7.90;1.40;;;11.80;97.00;;;;;;4987840;28;20034;-58
2022/11/02 08:18:24;;;;;;;7.78;1.45;;;11.80;97.00;;;;;;4981576;28;20081;-59
2022/11/02 08:20:51;;;;;;;4.45;1.02;;;11.70;97.10;;;;;;4974343;28;20502;-59
2022/11/02 08:23:18;;;;;;;10.38;1.50;;;11.70;97.20;;;;;;4971291;28;20027;-56
2022/11/02 08:25:45;;;;;;;6.50;1.65;;;11.70;97.30;;;;;;4976923;28;20561;-58
2022/11/02 08:28:41;;;;;;;8.18;1.23;;;11.70;97.40;;;;;;4983391;28;20475;-62
2022/11/02 08:31:14;;;;;;;4.53;1.08;;;11.70;97.40;;;;;;4954811;28;20043;-61
2022/11/02 08:33:43;;;;;;;4.82;1.13;;;11.70;97.40;;;;;;4984728;28;20066;-59
2022/11/02 08:36:09;;;;;;;7.07;1.60;;;11.70;97.30;;;;;;4972234;28;20046;-59
2022/11/02 08:38:35;;;;;;;4.80;1.15;;;11.80;97.30;;;;;;4973057;28;20109;-57
2022/11/02 08:41:01;;;;;;;6.30;1.65;;;11.80;97.30;;;;;;4978080;28;20105;-59
2022/11/02 08:43:27;;;;;;;6.55;1.50;;;11.80;97.30;;;;;;4985626;28;20037;-59
2022/11/02 08:45:57;;;;;;;8.85;1.35;;;11.80;97.10;;;;;;4987802;28;20035;-57
2022/11/02 08:48:23;;;;;;;4.60;1.47;;;11.90;97.10;;;;;;4983113;28;20030;-58
2022/11/02 08:50:49;;;;;;;6.22;1.70;;;11.90;97.00;;;;;;4988659;28;20109;-65
2022/11/02 08:53:15;;;;;;;9.98;2.25;;;12.00;96.80;;;;;;4986949;28;20046;-56
2022/11/02 08:55:40;;;;;;;8.98;1.40;;;12.00;96.60;;;;;;4989234;28;20042;-54
2022/11/02 08:58:06;;;;;;;7.03;1.73;;;12.00;96.60;;;;;;4973848;28;20536;-58
2022/11/02 09:00:33;;;;;;;7.30;1.48;;;12.10;96.50;;;;;;4972357;28;20113;-57
2022/11/02 09:03:06;;;;;;;5.07;1.13;;;12.10;96.40;;;;;;4972438;28;20030;-60
2022/11/02 09:05:34;;;;;;;4.65;1.23;;;12.10;96.40;;;;;;4982268;28;20121;-56
2022/11/02 09:08:02;;;;;;;3.10;0.95;;;12.10;96.30;;;;;;4972402;28;20027;-61
2022/11/02 09:10:30;;;;;;;4.47;1.15;;;12.20;96.30;;;;;;4973818;28;20023;-64
2022/11/02 09:12:58;;;;;;;6.40;1.65;;;12.20;96.20;;;;;;4979798;28;20050;-59
2022/11/02 09:15:24;;;;;;;9.70;1.27;;;12.20;96.00;;;;;;4981254;28;20042;-64
2022/11/02 09:17:49;;;;;;;5.43;1.40;;;12.20;95.90;;;;;;4987006;28;20019;-65
2022/11/02 09:20:16;;;;;;;8.60;2.33;;;12.20;95.90;;;;;;4976306;28;20078;-60
2022/11/02 09:22:44;;;;;;;5.70;1.45;;;12.30;95.80;;;;;;4972518;28;20081;-65
2022/11/02 09:25:10;;;;;;;6.55;1.40;;;12.30;95.50;;;;;;4986884;28;20495;-60
2022/11/02 09:27:36;;;;;;;6.93;1.20;;;12.30;95.30;;;;;;4986900;28;20506;-62
2022/11/02 09:30:03;;;;;;;7.13;1.58;;;12.40;95.30;;;;;;4990779;28;20026;-60
2022/11/02 09:32:32;;;;;;;7.68;2.25;;;12.40;95.30;;;;;;4989980;28;20046;-59
2022/11/02 09:34:58;;;;;;;11.85;1.42;;;12.40;95.00;;;;;;4972728;28;20043;-57
2022/11/02 09:37:24;;;;;;;5.22;1.10;;;12.50;94.90;;;;;;4971875;28;20027;-58
2022/11/02 09:39:50;;;;;;;4.55;1.40;;;12.50;94.60;;;;;;4981242;28;20039;-63
2022/11/02 09:42:28;;;;;;;9.00;1.98;;;12.50;94.50;;;;;;4988131;28;20022;-63
2022/11/02 09:45:04;;;;;;;8.68;1.40;;;12.50;94.50;;;;;;4989502;28;20093;-59
2022/11/02 09:47:34;;;;;;;5.03;1.17;;;12.60;94.40;;;;;;4996982;28;20053;-57
2022/11/02 09:50:02;;;;;;;6.65;1.27;;;12.60;94.30;;;;;;5011298;28;20553;-60
2022/11/02 09:52:37;;;;;;;6.13;1.45;;;12.60;94.00;;;;;;4977070;28;20038;-63
2022/11/02 09:55:12;;;;;;;6.47;1.20;;;12.70;94.20;;;;;;4993994;28;20142;-63
2022/11/02 09:57:41;;;;;;;8.20;1.48;;;12.70;94.20;;;;;;4994649;28;20022;-62
2022/11/02 10:00:13;;;;;;;10.98;1.27;;;12.80;94.10;;;;;;4994424;28;20026;-59
2022/11/02 10:03:23;;;;;;;6.25;1.50;;;12.80;93.80;;;;;;4993978;28;20042;-61
2022/11/02 10:06:03;;;;;;;5.60;1.33;;;12.90;93.70;;;;;;4973898;28;20514;-67
2022/11/02 10:08:53;;;;;;;7.80;1.58;;;13.00;93.20;;;;;;4974327;28;20026;-60
2022/11/02 10:11:38;;;;;;;5.57;1.42;;;13.00;93.00;;;;;;4974002;28;20031;-60
2022/11/02 10:14:28;;;;;;;6.97;1.75;;;13.10;92.80;;;;;;4975623;28;20076;-61
2022/11/02 10:16:59;;;;;;;9.37;1.60;;;13.10;92.80;;;;;;4975487;28;20023;-60
2022/11/02 10:19:26;;;;;;;7.40;1.20;;;13.10;92.70;;;;;;4974976;28;20754;-61
2022/11/02 10:21:56;;;;;;;8.10;1.20;;;13.20;92.70;;;;;;4974196;28;20022;-61
2022/11/02 10:24:36;;;;;;;8.20;1.38;;;13.30;92.60;;;;;;4984684;28;20475;-64
2022/11/02 10:27:11;;;;;;;5.88;1.27;;;13.40;92.10;;;;;;4994476;28;20022;-62
2022/11/02 10:29:55;;;;;;;7.82;1.58;;;13.50;91.90;;;;;;4989348;28;20027;-61
2022/11/02 10:32:21;;;;;;;9.07;2.65;;;13.60;91.60;;;;;;4991390;28;20374;-66
2022/11/02 10:34:47;;;;;;;5.93;1.73;;;13.80;91.60;;;;;;4989900;28;20038;-61
2022/11/02 10:37:49;;;;;;;7.43;1.23;;;13.90;91.30;;;;;;4986982;28;20533;-59
2022/11/02 10:40:14;;;;;;;;;;;13.80;91.00;;;;;;4983983;28;20022;-55
2022/11/02 10:42:49;;;;;;;3.83;1.00;;;13.80;90.80;;;;;;4990985;28;20389;-55
2022/11/02 10:45:32;;;;;;;4.18;1.40;;;13.70;90.50;;;;;;4988065;28;20037;-52
2022/11/02 10:48:12;;;;;;;7.13;1.63;;;13.80;90.50;;;;;;4978823;28;20501;-55
2022/11/02 10:50:45;;;;;;;3.85;1.25;;;13.80;90.40;;;;;;4986443;28;20092;-56
2022/11/02 10:53:14;;;;;;;5.68;1.40;;;13.80;90.40;;;;;;4986101;28;20383;-54
2022/11/02 10:56:19;;;;;;;9.02;1.60;;;13.80;90.50;;;;;;4990467;28;20038;-52
2022/11/02 10:58:50;;;;;;;6.35;1.83;;;13.90;90.50;;;;;;4936833;28;20035;-56
2022/11/02 11:01:15;;;;;;;6.88;1.73;;;14.00;90.20;;;;;;4989337;28;20368;-58
2022/11/02 11:04:01;;;;;;;8.60;1.65;;;13.90;89.80;;;;;;4988467;28;20027;-55
2022/11/02 11:06:41;;;;;;;5.95;1.25;;;13.90;89.40;;;;;;4990126;28;20483;-54
2022/11/02 11:09:20;;;;;;;9.63;1.42;;;13.80;88.90;;;;;;4992167;28;20030;-54
2022/11/02 11:12:12;;;;;;;5.57;1.30;;;13.80;89.30;;;;;;4991178;28;20041;-56
2022/11/02 11:14:59;;;;;;;8.63;1.40;;;13.80;89.20;;;;;;4989268;28;20038;-60
2022/11/02 11:17:31;;;;;;;4.05;1.33;;;13.70;89.20;;;;;;4992723;28;20117;-54
2022/11/02 11:19:57;;;;;;;4.30;1.10;;;13.70;88.70;;;;;;4990096;28;20372;-56
2022/11/02 11:22:29;;;;;;;8.30;1.48;;;13.60;88.60;;;;;;4987805;28;20769;-57
2022/11/02 11:25:22;;;;;;;6.03;1.50;;;13.60;88.40;;;;;;4990196;28;20426;-59
2022/11/02 11:27:58;;;;;;;3.05;1.30;;;13.70;88.70;;;;;;4982771;28;20106;-64
2022/11/02 11:30:26;;;;;;;3.65;1.17;;;13.80;88.50;;;;;;4991526;28;20038;-55
2022/11/02 11:32:52;;;;;;;5.43;1.42;;;13.90;88.20;;;;;;4991926;28;20081;-56
2022/11/02 11:35:19;;;;;;;5.20;1.00;;;13.90;88.60;;;;;;4991965;28;20541;-55
2022/11/02 11:38:01;;;;;;;8.60;1.50;;;14.00;88.60;;;;;;4993205;28;20049;-54
2022/11/02 11:40:31;;;;;;;5.00;1.30;;;14.10;88.80;;;;;;4981967;28;20774;-55
2022/11/02 11:42:57;;;;;;;5.77;1.30;;;14.30;88.80;;;;;;4992674;28;20470;-57
2022/11/02 11:45:26;;;;;;;5.63;1.20;;;14.40;87.50;;;;;;4992653;28;20073;-59
2022/11/02 11:48:05;;;;;;;8.82;1.48;;;14.50;86.90;;;;;;4992214;28;20463;-59
2022/11/02 11:50:32;;;;;;;9.90;1.80;;;14.60;86.50;;;;;;4992528;28;20097;-62
2022/11/02 11:53:24;;;;;;;5.82;1.58;;;14.60;86.40;;;;;;4986366;28;20050;-60
2022/11/02 11:55:51;;;;;;;6.68;1.42;;;14.60;86.20;;;;;;4978269;28;20030;-59
2022/11/02 11:58:22;;;;;;;8.55;1.70;;;14.60;85.40;;;;;;4988551;28;20025;-59
2022/11/02 12:01:16;;;;;;;4.63;1.40;;;14.50;85.70;;;;;;4970985;28;20022;-63
2022/11/02 12:03:59;;;;;;;6.10;1.45;;;14.40;85.60;;;;;;4973126;28;20423;-66
2022/11/02 12:06:50;;;;;;;8.40;1.38;;;14.40;85.30;;;;;;4973467;28;20031;-65
2022/11/02 12:09:40;;;;;;;5.32;1.30;;;14.30;85.40;;;;;;4974145;28;20061;-60
2022/11/02 12:12:41;;;;;;;8.45;1.90;;;14.40;85.70;;;;;;4973011;28;20034;-64
2022/11/02 12:15:37;;;;;;;8.23;2.08;;;14.50;85.20;;;;;;4984655;28;20077;-61
2022/11/02 12:18:24;;;;;;;6.13;1.52;;;14.50;84.70;;;;;;4992338;28;20452;-60
2022/11/02 12:21:04;;;;;;;4.57;1.60;;;14.50;83.80;;;;;;4992785;28;20034;-62
2022/11/02 12:24:02;;;;;;;7.13;1.88;;;14.50;84.20;;;;;;4992380;28;20418;-61
2022/11/02 12:26:56;;;;;;;5.60;1.50;;;14.40;84.80;;;;;;4993233;28;20206;-63
2022/11/02 12:32:05;;;;;;;7.00;1.58;;;14.60;84.50;;;;;;5501097;23;20088;-60
2022/11/02 12:34:52;;;;;;;6.90;1.40;;;14.70;83.90;;;;;;5052037;28;20037;-61
2022/11/02 12:37:36;;;;;;;6.00;1.25;;;14.70;83.00;;;;;;5050811;28;20021;-60
2022/11/02 12:40:10;;;;;;;5.15;1.65;;;14.70;82.60;;;;;;5050634;28;20033;-61
2022/11/02 12:42:57;;;;;;;5.25;1.20;;;14.60;82.60;;;;;;5051595;28;20051;-60
2022/11/02 12:45:47;;;;;;;8.07;1.50;;;14.60;81.40;;;;;;5050719;28;20435;-61
2022/11/02 12:48:24;;;;;;;8.40;1.63;;;14.60;81.20;;;;;;5049619;28;20052;-61
2022/11/02 12:52:54;;;;;;;6.05;1.30;;;14.60;79.30;;;;;;5109869;27;20319;-59
2022/11/02 12:55:24;;;;;;;3.38;1.10;;;14.60;80.40;;;;;;5087690;28;20036;-60
2022/11/02 12:57:55;;;;;;;5.07;1.38;;;14.50;80.20;;;;;;5109922;28;20016;-60
2022/11/02 13:00:22;;;;;;;7.43;1.45;;;14.50;78.60;;;;;;5109059;28;20088;-60
2022/11/02 13:03:00;;;;;;;2.63;1.20;;;14.50;78.50;;;;;;5109485;28;20031;-60
2022/11/02 13:05:33;;;;;;;4.43;1.17;;;14.40;78.90;;;;;;5109728;28;20440;-60
2022/11/02 13:08:01;;;;;;;7.70;1.45;;;14.40;79.60;;;;;;5107554;28;20020;-60
2022/11/02 13:10:34;;;;;;;4.03;1.50;;;14.40;78.90;;;;;;5109180;28;20074;-60
2022/11/02 13:13:02;;;;;;;8.30;1.55;;;14.40;78.40;;;;;;5109306;28;20020;-60
2022/11/02 13:15:32;;;;;;;8.75;1.33;;;14.40;77.60;;;;;;5108949;28;20364;-65
2022/11/02 13:18:05;;;;;;;5.18;1.20;;;14.40;77.00;;;;;;5108315;28;20471;-68
2022/11/02 13:20:49;;;;;;;3.92;1.15;;;14.30;77.30;;;;;;5108625;28;20038;-67
2022/11/02 13:23:36;;;;;;;4.40;0.95;;;14.30;77.90;;;;;;5107490;28;20024;-63
2022/11/02 13:26:22;;;;;;;7.15;1.77;;;14.20;78.60;;;;;;5109216;28;20417;-66
2022/11/02 13:29:12;;;;;;;5.47;1.20;;;14.20;78.40;;;;;;5107666;28;20023;-64